sensor_id;sensor_type;location;lat;lon;timestamp;pressure;altitude;pressure_sealevel;temperature;humidity
55757;BME280;41676;44.610;44.078;2023-02-12T00:04:17;101415.88;;;-11.45;74.27
55757;BME280;41676;44.610;44.078;2023-02-12T00:09:18;101480.81;;;-11.15;74.27
55757;BME280;41676;44.610;44.078;2023-02-12T00:14:19;101475.69;;;-11.24;74.62
55757;BME280;41676;44.610;44.078;2023-02-12T00:19:19;101475.69;;;-11.34;74.28
55757;BME280;41676;44.610;44.078;2023-02-12T00:24:20;101417.63;;;-11.72;74.14
55757;BME280;41676;44.610;44.078;2023-02-12T00:29:21;101432.16;;;-11.84;73.55
55757;BME280;41676;44.610;44.078;2023-02-12T00:34:22;101443.28;;;-11.91;74.03
55757;BME280;41676;44.610;44.078;2023-02-12T00:39:22;101458.66;;;-11.94;74.22
55757;BME280;41676;44.610;44.078;2023-02-12T00:44:23;101441.56;;;-11.94;74.49
55757;BME280;41676;44.610;44.078;2023-02-12T00:49:24;101438.16;;;-11.93;74.24
55757;BME280;41676;44.610;44.078;2023-02-12T00:54:25;101414.22;;;-12.18;74.08
55757;BME280;41676;44.610;44.078;2023-02-12T00:59:26;101433.84;;;-12.25;74.30
55757;BME280;41676;44.610;44.078;2023-02-12T01:04:27;101431.28;;;-12.22;74.33
55757;BME280;41676;44.610;44.078;2023-02-12T01:09:27;101410.78;;;-12.31;74.27
55757;BME280;41676;44.610;44.078;2023-02-12T01:14:28;101391.97;;;-12.59;74.31
55757;BME280;41676;44.610;44.078;2023-02-12T01:19:29;101414.16;;;-12.56;74.05
55757;BME280;41676;44.610;44.078;2023-02-12T01:24:30;101418.41;;;-12.63;74.68
55757;BME280;41676;44.610;44.078;2023-02-12T01:29:31;101396.22;;;-12.70;74.54
55757;BME280;41676;44.610;44.078;2023-02-12T01:34:31;101336.41;;;-13.03;74.48
55757;BME280;41676;44.610;44.078;2023-02-12T01:39:33;101409.00;;;-12.59;74.38
55757;BME280;41676;44.610;44.078;2023-02-12T01:44:36;101364.56;;;-13.00;74.21
55757;BME280;41676;44.610;44.078;2023-02-12T01:49:41;101404.69;;;-12.80;74.45
55757;BME280;41676;44.610;44.078;2023-02-12T01:54:43;101276.59;;;-13.57;74.54
55757;BME280;41676;44.610;44.078;2023-02-12T01:59:47;101384.19;;;-12.96;74.95
55757;BME280;41676;44.610;44.078;2023-02-12T02:04:53;101432.94;;;-12.45;75.54
55757;BME280;41676;44.610;44.078;2023-02-12T02:09:56;101257.00;;;-13.52;74.68
55757;BME280;41676;44.610;44.078;2023-02-12T02:14:58;101437.19;;;-12.55;74.86
55757;BME280;41676;44.610;44.078;2023-02-12T02:31:15;101440.59;;;-12.68;74.47
55757;BME280;41676;44.610;44.078;2023-02-12T02:36:38;101439.69;;;-12.72;74.49
55757;BME280;41676;44.610;44.078;2023-02-12T02:46:48;101343.16;;;-13.23;74.70
55757;BME280;41676;44.610;44.078;2023-02-12T02:51:53;101444.81;;;-12.76;73.99
55757;BME280;41676;44.610;44.078;2023-02-12T02:57:03;101379.84;;;-13.18;74.32
55757;BME280;41676;44.610;44.078;2023-02-12T03:02:14;101407.28;;;-12.79;75.67
55757;BME280;41676;44.610;44.078;2023-02-12T03:12:37;101431.25;;;-12.52;74.33
55757;BME280;41676;44.610;44.078;2023-02-12T03:17:43;101360.31;;;-12.95;74.48
55757;BME280;41676;44.610;44.078;2023-02-12T03:22:50;101358.69;;;-12.63;75.22
55757;BME280;41676;44.610;44.078;2023-02-12T03:28:03;101435.56;;;-11.79;75.77
55757;BME280;41676;44.610;44.078;2023-02-12T03:33:19;101411.66;;;-11.78;74.75
55757;BME280;41676;44.610;44.078;2023-02-12T03:38:40;101423.59;;;-11.82;74.71
55757;BME280;41676;44.610;44.078;2023-02-12T03:49:47;101422.75;;;-11.79;75.27
55757;BME280;41676;44.610;44.078;2023-02-12T03:54:50;101437.28;;;-11.69;75.45
55757;BME280;41676;44.610;44.078;2023-02-12T03:59:51;101340.78;;;-12.11;75.85
55757;BME280;41676;44.610;44.078;2023-02-12T04:04:52;101434.66;;;-11.32;76.19
55757;BME280;41676;44.610;44.078;2023-02-12T04:09:53;101444.84;;;-11.03;76.69
55757;BME280;41676;44.610;44.078;2023-02-12T04:14:59;101412.28;;;-10.90;76.32
55757;BME280;41676;44.610;44.078;2023-02-12T04:32:36;101452.13;;;-10.20;76.13
55757;BME280;41676;44.610;44.078;2023-02-12T04:37:14;101447.75;;;-10.09;75.93
55757;BME280;41676;44.610;44.078;2023-02-12T04:42:17;101453.66;;;-9.93;75.35
55757;BME280;41676;44.610;44.078;2023-02-12T04:47:18;101414.31;;;-10.01;75.52
55757;BME280;41676;44.610;44.078;2023-02-12T04:52:18;101435.50;;;-9.72;75.38
55757;BME280;41676;44.610;44.078;2023-02-12T04:57:19;101392.75;;;-9.85;75.79
55757;BME280;41676;44.610;44.078;2023-02-12T05:02:20;101444.66;;;-9.43;76.02
55757;BME280;41676;44.610;44.078;2023-02-12T05:07:20;101407.06;;;-9.58;75.60
55757;BME280;41676;44.610;44.078;2023-02-12T05:12:21;101401.84;;;-9.47;75.88
55757;BME280;41676;44.610;44.078;2023-02-12T05:17:23;101297.78;;;-10.00;75.74
55757;BME280;41676;44.610;44.078;2023-02-12T05:22:24;101446.56;;;-8.80;75.44
55757;BME280;41676;44.610;44.078;2023-02-12T05:27:24;101441.19;;;-8.60;75.78
55757;BME280;41676;44.610;44.078;2023-02-12T05:32:25;101419.34;;;-8.38;75.35
55757;BME280;41676;44.610;44.078;2023-02-12T05:37:26;101396.69;;;-8.14;75.11
55757;BME280;41676;44.610;44.078;2023-02-12T05:42:28;101430.25;;;-7.63;74.97
55757;BME280;41676;44.610;44.078;2023-02-12T05:47:29;101398.91;;;-7.42;74.64
55757;BME280;41676;44.610;44.078;2023-02-12T05:52:29;101422.09;;;-6.94;74.79
55757;BME280;41676;44.610;44.078;2023-02-12T05:57:30;101428.91;;;-6.48;74.18
55757;BME280;41676;44.610;44.078;2023-02-12T06:02:33;101408.03;;;-6.01;73.91
55757;BME280;41676;44.610;44.078;2023-02-12T06:07:33;101388.88;;;-5.61;73.57
55757;BME280;41676;44.610;44.078;2023-02-12T06:12:34;101400.53;;;-5.12;73.17
55757;BME280;41676;44.610;44.078;2023-02-12T06:17:35;101331.22;;;-5.04;72.75
55757;BME280;41676;44.610;44.078;2023-02-12T06:22:35;101400.22;;;-4.14;72.50
55757;BME280;41676;44.610;44.078;2023-02-12T06:27:37;101377.94;;;-3.93;71.94
55757;BME280;41676;44.610;44.078;2023-02-12T06:32:38;101391.84;;;-3.69;71.92
55757;BME280;41676;44.610;44.078;2023-02-12T06:37:39;101392.97;;;-3.51;72.25
55757;BME280;41676;44.610;44.078;2023-02-12T06:42:39;101380.03;;;-3.28;72.47
55757;BME280;41676;44.610;44.078;2023-02-12T06:47:40;101363.66;;;-3.06;71.67
55757;BME280;41676;44.610;44.078;2023-02-12T06:52:41;101358.94;;;-2.71;71.11
55757;BME280;41676;44.610;44.078;2023-02-12T06:57:42;101384.53;;;-2.17;71.07
55757;BME280;41676;44.610;44.078;2023-02-12T07:02:42;101360.81;;;-1.89;70.30
55757;BME280;41676;44.610;44.078;2023-02-12T07:07:43;101352.13;;;-1.88;69.67
55757;BME280;41676;44.610;44.078;2023-02-12T07:12:44;101267.38;;;-2.37;69.77
55757;BME280;41676;44.610;44.078;2023-02-12T07:17:45;101303.00;;;-2.17;70.37
55757;BME280;41676;44.610;44.078;2023-02-12T07:22:46;101343.00;;;-1.77;69.81
55757;BME280;41676;44.610;44.078;2023-02-12T07:27:46;101291.19;;;-1.84;69.92
55757;BME280;41676;44.610;44.078;2023-02-12T07:32:47;101370.88;;;-1.18;69.26
55757;BME280;41676;44.610;44.078;2023-02-12T07:37:48;101350.66;;;-1.13;69.45
55757;BME280;41676;44.610;44.078;2023-02-12T07:42:53;101277.81;;;-1.55;68.96
55757;BME280;41676;44.610;44.078;2023-02-12T07:47:55;101261.56;;;-1.42;69.81
55757;BME280;41676;44.610;44.078;2023-02-12T07:52:55;101305.69;;;-0.80;68.63
55757;BME280;41676;44.610;44.078;2023-02-12T07:57:56;101196.22;;;-1.01;68.40
55757;BME280;41676;44.610;44.078;2023-02-12T08:02:57;101272.16;;;-0.34;68.38
55757;BME280;41676;44.610;44.078;2023-02-12T08:07:58;101324.72;;;0.29;67.83
55757;BME280;41676;44.610;44.078;2023-02-12T08:12:58;101313.88;;;0.54;67.70
55757;BME280;41676;44.610;44.078;2023-02-12T08:17:59;101245.84;;;0.38;67.34
55757;BME280;41676;44.610;44.078;2023-02-12T08:23:00;101220.78;;;0.67;66.93
55757;BME280;41676;44.610;44.078;2023-02-12T08:28:01;101157.00;;;0.70;66.65
55757;BME280;41676;44.610;44.078;2023-02-12T08:33:02;101263.00;;;1.71;66.34
55757;BME280;41676;44.610;44.078;2023-02-12T08:38:03;101275.09;;;1.88;65.69
55757;BME280;41676;44.610;44.078;2023-02-12T08:43:03;101187.94;;;1.70;65.86
55757;BME280;41676;44.610;44.078;2023-02-12T08:48:04;101252.34;;;2.61;65.49
55757;BME280;41676;44.610;44.078;2023-02-12T08:53:05;101244.22;;;3.07;64.93
55757;BME280;41676;44.610;44.078;2023-02-12T08:58:07;101161.16;;;3.06;64.64
55757;BME280;41676;44.610;44.078;2023-02-12T09:03:08;101227.63;;;3.74;63.80
55757;BME280;41676;44.610;44.078;2023-02-12T09:08:09;101209.28;;;3.99;63.74
55757;BME280;41676;44.610;44.078;2023-02-12T09:13:11;101185.91;;;3.95;63.46
55757;BME280;41676;44.610;44.078;2023-02-12T09:18:13;101120.16;;;3.31;63.33
55757;BME280;41676;44.610;44.078;2023-02-12T09:23:14;101165.81;;;3.15;64.56
55757;BME280;41676;44.610;44.078;2023-02-12T09:28:15;101197.31;;;3.15;65.01
55757;BME280;41676;44.610;44.078;2023-02-12T09:33:15;101181.53;;;3.03;64.92
55757;BME280;41676;44.610;44.078;2023-02-12T09:38:16;101153.25;;;2.93;65.17
55757;BME280;41676;44.610;44.078;2023-02-12T09:43:24;101158.97;;;3.13;63.96
55757;BME280;41676;44.610;44.078;2023-02-12T09:54:14;101132.34;;;3.32;63.64
55757;BME280;41676;44.610;44.078;2023-02-12T09:59:28;101151.75;;;3.56;63.00
55757;BME280;41676;44.610;44.078;2023-02-12T10:04:31;101106.97;;;3.45;63.83
55757;BME280;41676;44.610;44.078;2023-02-12T10:25:33;101134.59;;;3.63;64.78
55757;BME280;41676;44.610;44.078;2023-02-12T10:41:43;101111.47;;;3.43;66.53
55757;BME280;41676;44.610;44.078;2023-02-12T10:46:46;101069.31;;;3.32;66.82
55757;BME280;41676;44.610;44.078;2023-02-12T10:52:15;101102.78;;;3.81;66.71
55757;BME280;41676;44.610;44.078;2023-02-12T11:02:25;101104.66;;;3.79;66.63
55757;BME280;41676;44.610;44.078;2023-02-12T11:07:27;101094.56;;;3.73;66.46
55757;BME280;41676;44.610;44.078;2023-02-12T11:17:38;101055.28;;;3.71;65.97
55757;BME280;41676;44.610;44.078;2023-02-12T11:22:49;100974.88;;;3.05;67.59
55757;BME280;41676;44.610;44.078;2023-02-12T11:38:32;101010.91;;;3.66;67.37
55757;BME280;41676;44.610;44.078;2023-02-12T11:43:35;101006.50;;;3.67;67.08
55757;BME280;41676;44.610;44.078;2023-02-12T11:48:39;101059.53;;;3.85;66.63
55757;BME280;41676;44.610;44.078;2023-02-12T11:53:48;101079.94;;;3.56;67.08
55757;BME280;41676;44.610;44.078;2023-02-12T11:58:51;101007.59;;;2.73;67.84
55757;BME280;41676;44.610;44.078;2023-02-12T12:04:12;101057.44;;;3.13;68.62
55757;BME280;41676;44.610;44.078;2023-02-12T12:09:22;101060.25;;;3.10;68.38
55757;BME280;41676;44.610;44.078;2023-02-12T12:14:34;101051.41;;;2.98;69.33
55757;BME280;41676;44.610;44.078;2023-02-12T12:20:09;101049.13;;;2.94;69.59
55757;BME280;41676;44.610;44.078;2023-02-12T12:25:30;101045.19;;;2.87;69.30
55757;BME280;41676;44.610;44.078;2023-02-12T12:30:36;100945.81;;;2.15;69.47
55757;BME280;41676;44.610;44.078;2023-02-12T12:51:58;101025.59;;;2.11;69.11
55757;BME280;41676;44.610;44.078;2023-02-12T12:57:14;101001.59;;;1.90;69.60
55757;BME280;41676;44.610;44.078;2023-02-12T13:13:35;101016.69;;;1.44;70.60
55757;BME280;41676;44.610;44.078;2023-02-12T13:24:20;101015.53;;;1.05;71.77
55757;BME280;41676;44.610;44.078;2023-02-12T13:30:38;101002.13;;;0.95;72.20
55757;BME280;41676;44.610;44.078;2023-02-12T13:35:21;101005.56;;;0.65;71.71
55757;BME280;41676;44.610;44.078;2023-02-12T13:40:27;100998.13;;;0.43;72.43
55757;BME280;41676;44.610;44.078;2023-02-12T14:06:15;100926.66;;;-0.82;75.07
55757;BME280;41676;44.610;44.078;2023-02-12T14:11:20;100936.81;;;-0.94;74.61
55757;BME280;41676;44.610;44.078;2023-02-12T14:26:35;101014.66;;;-0.68;75.70
55757;BME280;41676;44.610;44.078;2023-02-12T14:31:38;101016.13;;;-0.80;74.83
55757;BME280;41676;44.610;44.078;2023-02-12T14:36:41;101004.56;;;-1.09;75.57
55757;BME280;41676;44.610;44.078;2023-02-12T14:41:44;100952.03;;;-1.54;75.39
55757;BME280;41676;44.610;44.078;2023-02-12T14:46:55;101030.00;;;-1.15;75.81
55757;BME280;41676;44.610;44.078;2023-02-12T14:52:05;100941.88;;;-1.77;75.98
55757;BME280;41676;44.610;44.078;2023-02-12T14:57:35;101033.38;;;-1.30;77.19
55757;BME280;41676;44.610;44.078;2023-02-12T15:02:39;101023.59;;;-1.44;76.73
55757;BME280;41676;44.610;44.078;2023-02-12T15:07:49;100887.63;;;-2.21;76.52
55757;BME280;41676;44.610;44.078;2023-02-12T15:13:23;101047.88;;;-1.24;76.13
55757;BME280;41676;44.610;44.078;2023-02-12T15:23:35;101049.16;;;-1.33;76.87
55757;BME280;41676;44.610;44.078;2023-02-12T15:28:36;101032.66;;;-1.51;75.86
55757;BME280;41676;44.610;44.078;2023-02-12T15:33:44;101038.81;;;-1.34;77.47
55757;BME280;41676;44.610;44.078;2023-02-12T15:39:05;101036.28;;;-1.36;77.33
55757;BME280;41676;44.610;44.078;2023-02-12T15:49:27;100951.97;;;-1.89;76.56
55757;BME280;41676;44.610;44.078;2023-02-12T15:54:28;101046.94;;;-1.41;77.03
55757;BME280;41676;44.610;44.078;2023-02-12T15:59:29;101045.09;;;-1.39;76.64
55757;BME280;41676;44.610;44.078;2023-02-12T16:04:32;101038.69;;;-1.50;77.27
55757;BME280;41676;44.610;44.078;2023-02-12T16:09:36;100999.13;;;-1.76;76.63
55757;BME280;41676;44.610;44.078;2023-02-12T16:14:45;101003.66;;;-1.62;77.10
55757;BME280;41676;44.610;44.078;2023-02-12T16:19:58;101008.50;;;-1.54;78.10
55757;BME280;41676;44.610;44.078;2023-02-12T16:25:00;100936.19;;;-2.03;76.84
55757;BME280;41676;44.610;44.078;2023-02-12T16:30:06;100984.19;;;-1.72;77.92
55757;BME280;41676;44.610;44.078;2023-02-12T16:50:29;100996.19;;;-1.51;77.09
55757;BME280;41676;44.610;44.078;2023-02-12T16:55:32;100993.72;;;-1.54;76.74
55757;BME280;41676;44.610;44.078;2023-02-12T17:00:33;100868.41;;;-2.38;77.33
55757;BME280;41676;44.610;44.078;2023-02-12T17:05:36;100973.09;;;-1.76;77.47
55757;BME280;41676;44.610;44.078;2023-02-12T17:10:37;100980.75;;;-1.73;77.14
55757;BME280;41676;44.610;44.078;2023-02-12T17:15:43;100903.50;;;-2.27;77.77
55757;BME280;41676;44.610;44.078;2023-02-12T17:20:55;100960.06;;;-1.95;77.62
55757;BME280;41676;44.610;44.078;2023-02-12T17:25:56;100991.53;;;-1.80;77.85
55757;BME280;41676;44.610;44.078;2023-02-12T17:30:57;100967.34;;;-2.01;77.91
55757;BME280;41676;44.610;44.078;2023-02-12T17:35:58;100963.91;;;-2.02;78.32
55757;BME280;41676;44.610;44.078;2023-02-12T17:40:59;100980.00;;;-1.94;79.07
55757;BME280;41676;44.610;44.078;2023-02-12T17:46:00;100973.38;;;-2.01;78.82
55757;BME280;41676;44.610;44.078;2023-02-12T17:51:00;100901.06;;;-2.49;78.71
55757;BME280;41676;44.610;44.078;2023-02-12T17:56:01;100962.06;;;-2.19;79.19
55757;BME280;41676;44.610;44.078;2023-02-12T18:01:04;100882.34;;;-2.77;79.15
55757;BME280;41676;44.610;44.078;2023-02-12T18:06:06;100959.63;;;-2.41;78.37
55757;BME280;41676;44.610;44.078;2023-02-12T18:11:08;100941.06;;;-2.52;79.06
55757;BME280;41676;44.610;44.078;2023-02-12T18:16:10;100934.22;;;-2.73;78.86
55757;BME280;41676;44.610;44.078;2023-02-12T18:21:13;100907.13;;;-3.07;79.06
55757;BME280;41676;44.610;44.078;2023-02-12T18:26:16;100925.72;;;-2.96;79.48
55757;BME280;41676;44.610;44.078;2023-02-12T18:31:18;100909.06;;;-3.12;79.01
55757;BME280;41676;44.610;44.078;2023-02-12T18:36:20;100901.09;;;-3.28;78.88
55757;BME280;41676;44.610;44.078;2023-02-12T18:41:24;100898.78;;;-3.34;78.65
55757;BME280;41676;44.610;44.078;2023-02-12T18:46:27;100889.34;;;-3.37;78.07
55757;BME280;41676;44.610;44.078;2023-02-12T18:51:29;100875.84;;;-3.45;78.48
55757;BME280;41676;44.610;44.078;2023-02-12T18:56:37;100781.88;;;-3.94;78.00
55757;BME280;41676;44.610;44.078;2023-02-12T19:01:40;100869.81;;;-3.25;77.55
55757;BME280;41676;44.610;44.078;2023-02-12T19:06:44;100861.09;;;-3.45;77.39
55757;BME280;41676;44.610;44.078;2023-02-12T19:11:46;100865.59;;;-3.48;77.78
55757;BME280;41676;44.610;44.078;2023-02-12T19:16:48;100848.47;;;-3.52;77.79
55757;BME280;41676;44.610;44.078;2023-02-12T19:21:49;100866.41;;;-3.27;77.86
55757;BME280;41676;44.610;44.078;2023-02-12T19:26:51;100881.03;;;-3.25;77.92
55757;BME280;41676;44.610;44.078;2023-02-12T19:31:52;100813.59;;;-3.67;78.13
55757;BME280;41676;44.610;44.078;2023-02-12T19:36:53;100883.31;;;-3.17;78.32
55757;BME280;41676;44.610;44.078;2023-02-12T19:41:54;100889.13;;;-3.12;77.86
55757;BME280;41676;44.610;44.078;2023-02-12T19:46:56;100810.34;;;-3.52;77.78
55757;BME280;41676;44.610;44.078;2023-02-12T19:51:57;100802.56;;;-3.52;77.42
55757;BME280;41676;44.610;44.078;2023-02-12T19:56:57;100849.38;;;-3.14;77.41
55757;BME280;41676;44.610;44.078;2023-02-12T20:01:58;100855.84;;;-3.23;77.38
55757;BME280;41676;44.610;44.078;2023-02-12T20:07:00;100862.44;;;-3.15;77.06
55757;BME280;41676;44.610;44.078;2023-02-12T20:12:01;100868.59;;;-3.18;77.56
55757;BME280;41676;44.610;44.078;2023-02-12T20:17:01;100876.63;;;-3.23;77.40
55757;BME280;41676;44.610;44.078;2023-02-12T20:22:02;100821.44;;;-3.48;76.99
55757;BME280;41676;44.610;44.078;2023-02-12T20:27:04;100855.03;;;-3.25;76.96
55757;BME280;41676;44.610;44.078;2023-02-12T20:32:05;100838.09;;;-3.33;76.92
55757;BME280;41676;44.610;44.078;2023-02-12T20:37:06;100838.81;;;-3.30;77.07
55757;BME280;41676;44.610;44.078;2023-02-12T20:42:06;100847.84;;;-3.38;77.13
55757;BME280;41676;44.610;44.078;2023-02-12T20:47:07;100803.59;;;-3.56;77.54
55757;BME280;41676;44.610;44.078;2023-02-12T20:52:08;100836.34;;;-3.33;77.12
55757;BME280;41676;44.610;44.078;2023-02-12T20:57:09;100792.34;;;-3.56;77.80
55757;BME280;41676;44.610;44.078;2023-02-12T21:02:10;100828.66;;;-3.15;77.86
55757;BME280;41676;44.610;44.078;2023-02-12T21:07:11;100735.72;;;-3.67;77.31
55757;BME280;41676;44.610;44.078;2023-02-12T21:12:12;100813.34;;;-3.22;77.54
55757;BME280;41676;44.610;44.078;2023-02-12T21:17:13;100725.31;;;-3.67;77.58
55757;BME280;41676;44.610;44.078;2023-02-12T21:22:13;100793.63;;;-3.26;77.41
55757;BME280;41676;44.610;44.078;2023-02-12T21:27:14;100775.78;;;-3.54;77.35
55757;BME280;41676;44.610;44.078;2023-02-12T21:32:15;100753.81;;;-3.65;77.79
55757;BME280;41676;44.610;44.078;2023-02-12T21:37:16;100778.06;;;-3.46;78.25
55757;BME280;41676;44.610;44.078;2023-02-12T21:42:16;100741.19;;;-3.54;78.30
55757;BME280;41676;44.610;44.078;2023-02-12T21:47:17;100772.97;;;-3.29;77.86
55757;BME280;41676;44.610;44.078;2023-02-12T21:52:18;100773.53;;;-3.22;77.80
55757;BME280;41676;44.610;44.078;2023-02-12T21:57:19;100754.81;;;-3.11;77.78
55757;BME280;41676;44.610;44.078;2023-02-12T22:02:21;100729.22;;;-3.19;77.51
55757;BME280;41676;44.610;44.078;2023-02-12T22:07:21;100705.91;;;-3.39;77.76
55757;BME280;41676;44.610;44.078;2023-02-12T22:12:22;100706.69;;;-3.37;77.60
55757;BME280;41676;44.610;44.078;2023-02-12T22:17:23;100701.75;;;-3.43;77.74
55757;BME280;41676;44.610;44.078;2023-02-12T22:22:25;100692.34;;;-3.46;78.05
55757;BME280;41676;44.610;44.078;2023-02-12T22:27:29;100693.34;;;-3.49;78.04
55757;BME280;41676;44.610;44.078;2023-02-12T22:32:30;100695.69;;;-3.44;78.37
55757;BME280;41676;44.610;44.078;2023-02-12T22:37:31;100659.28;;;-3.61;78.33
55757;BME280;41676;44.610;44.078;2023-02-12T22:42:32;100667.09;;;-3.61;78.75
55757;BME280;41676;44.610;44.078;2023-02-12T22:47:32;100639.78;;;-3.70;79.06
55757;BME280;41676;44.610;44.078;2023-02-12T22:52:33;100612.63;;;-3.82;78.81
55757;BME280;41676;44.610;44.078;2023-02-12T22:57:34;100587.50;;;-3.81;79.31
55757;BME280;41676;44.610;44.078;2023-02-12T23:02:34;100616.63;;;-3.56;79.59
55757;BME280;41676;44.610;44.078;2023-02-12T23:07:35;100598.59;;;-3.59;79.88
55757;BME280;41676;44.610;44.078;2023-02-12T23:12:36;100645.09;;;-3.35;79.91
55757;BME280;41676;44.610;44.078;2023-02-12T23:17:37;100650.22;;;-3.34;79.53
55757;BME280;41676;44.610;44.078;2023-02-12T23:22:37;100633.81;;;-3.34;79.62
55757;BME280;41676;44.610;44.078;2023-02-12T23:27:38;100584.00;;;-3.80;79.67
55757;BME280;41676;44.610;44.078;2023-02-12T23:32:39;100594.09;;;-3.93;79.52
55757;BME280;41676;44.610;44.078;2023-02-12T23:37:40;100524.28;;;-4.37;79.57
55757;BME280;41676;44.610;44.078;2023-02-12T23:42:40;100585.13;;;-4.05;79.88
55757;BME280;41676;44.610;44.078;2023-02-12T23:47:41;100651.66;;;-3.64;79.90
55757;BME280;41676;44.610;44.078;2023-02-12T23:52:42;100653.69;;;-3.52;79.47
55757;BME280;41676;44.610;44.078;2023-02-12T23:57:43;100654.81;;;-3.58;79.78
